sensor_id;sensor_type;location;lat;lon;timestamp;P1;durP1;ratioP1;P2;durP2;ratioP2
62071;SDS011;48031;48.542;13.232;2023-08-01T00:01:57;3.53;;;2.45;;
62071;SDS011;48031;48.542;13.232;2023-08-01T00:05:59;3.80;;;2.50;;
62071;SDS011;48031;48.542;13.232;2023-08-01T00:10:01;4.57;;;2.33;;
62071;SDS011;48031;48.542;13.232;2023-08-01T00:14:05;2.70;;;2.30;;
62071;SDS011;48031;48.542;13.232;2023-08-01T00:18:07;3.50;;;2.97;;
62071;SDS011;48031;48.542;13.232;2023-08-01T00:22:09;4.38;;;3.13;;
62071;SDS011;48031;48.542;13.232;2023-08-01T00:26:11;4.75;;;3.03;;
62071;SDS011;48031;48.542;13.232;2023-08-01T00:30:13;3.92;;;2.92;;
62071;SDS011;48031;48.542;13.232;2023-08-01T00:34:16;3.78;;;2.60;;
62071;SDS011;48031;48.542;13.232;2023-08-01T00:38:18;3.28;;;2.75;;
62071;SDS011;48031;48.542;13.232;2023-08-01T00:42:20;3.65;;;2.88;;
62071;SDS011;48031;48.542;13.232;2023-08-01T00:46:22;3.47;;;2.75;;
62071;SDS011;48031;48.542;13.232;2023-08-01T00:50:24;29.98;;;3.30;;
62071;SDS011;48031;48.542;13.232;2023-08-01T00:54:27;3.30;;;2.45;;
62071;SDS011;48031;48.542;13.232;2023-08-01T00:58:29;3.10;;;2.70;;
62071;SDS011;48031;48.542;13.232;2023-08-01T01:02:31;3.75;;;2.35;;
62071;SDS011;48031;48.542;13.232;2023-08-01T01:10:42;3.65;;;2.78;;
62071;SDS011;48031;48.542;13.232;2023-08-01T01:14:45;4.05;;;2.42;;
62071;SDS011;48031;48.542;13.232;2023-08-01T01:18:47;3.13;;;2.22;;
62071;SDS011;48031;48.542;13.232;2023-08-01T01:22:51;3.53;;;2.20;;
62071;SDS011;48031;48.542;13.232;2023-08-01T01:26:56;2.90;;;2.30;;
62071;SDS011;48031;48.542;13.232;2023-08-01T01:31:01;3.17;;;2.63;;
62071;SDS011;48031;48.542;13.232;2023-08-01T01:35:03;3.00;;;2.30;;
62071;SDS011;48031;48.542;13.232;2023-08-01T01:39:06;3.80;;;2.70;;
62071;SDS011;48031;48.542;13.232;2023-08-01T01:43:09;2.88;;;2.40;;
62071;SDS011;48031;48.542;13.232;2023-08-01T01:47:12;3.42;;;2.55;;
62071;SDS011;48031;48.542;13.232;2023-08-01T01:51:14;4.40;;;2.75;;
62071;SDS011;48031;48.542;13.232;2023-08-01T01:55:16;3.47;;;2.42;;
62071;SDS011;48031;48.542;13.232;2023-08-01T01:59:18;3.13;;;2.75;;
62071;SDS011;48031;48.542;13.232;2023-08-01T02:03:20;8.70;;;3.15;;
62071;SDS011;48031;48.542;13.232;2023-08-01T02:07:22;3.13;;;2.25;;
62071;SDS011;48031;48.542;13.232;2023-08-01T02:11:24;4.22;;;2.88;;
62071;SDS011;48031;48.542;13.232;2023-08-01T02:15:26;3.95;;;3.22;;
62071;SDS011;48031;48.542;13.232;2023-08-01T02:19:29;6.45;;;3.70;;
62071;SDS011;48031;48.542;13.232;2023-08-01T02:23:31;4.65;;;3.03;;
62071;SDS011;48031;48.542;13.232;2023-08-01T02:27:34;4.25;;;2.92;;
62071;SDS011;48031;48.542;13.232;2023-08-01T02:31:36;6.25;;;3.78;;
62071;SDS011;48031;48.542;13.232;2023-08-01T02:35:38;7.43;;;3.20;;
62071;SDS011;48031;48.542;13.232;2023-08-01T02:39:40;8.13;;;3.10;;
62071;SDS011;48031;48.542;13.232;2023-08-01T02:43:42;3.40;;;2.72;;
62071;SDS011;48031;48.542;13.232;2023-08-01T02:47:44;3.65;;;2.08;;
62071;SDS011;48031;48.542;13.232;2023-08-01T02:51:46;4.20;;;2.75;;
62071;SDS011;48031;48.542;13.232;2023-08-01T02:55:48;3.10;;;2.55;;
62071;SDS011;48031;48.542;13.232;2023-08-01T02:59:50;3.33;;;2.50;;
62071;SDS011;48031;48.542;13.232;2023-08-01T03:03:52;3.60;;;2.70;;
62071;SDS011;48031;48.542;13.232;2023-08-01T03:07:54;4.82;;;2.72;;
62071;SDS011;48031;48.542;13.232;2023-08-01T03:11:57;3.60;;;2.58;;
62071;SDS011;48031;48.542;13.232;2023-08-01T03:16:00;3.60;;;2.88;;
62071;SDS011;48031;48.542;13.232;2023-08-01T03:20:02;5.18;;;2.92;;
62071;SDS011;48031;48.542;13.232;2023-08-01T03:24:05;3.80;;;2.85;;
62071;SDS011;48031;48.542;13.232;2023-08-01T03:28:10;4.38;;;3.40;;
62071;SDS011;48031;48.542;13.232;2023-08-01T03:32:13;5.28;;;3.75;;
62071;SDS011;48031;48.542;13.232;2023-08-01T03:36:15;5.15;;;3.15;;
62071;SDS011;48031;48.542;13.232;2023-08-01T03:40:20;3.95;;;3.05;;
62071;SDS011;48031;48.542;13.232;2023-08-01T03:44:24;3.70;;;2.90;;
62071;SDS011;48031;48.542;13.232;2023-08-01T03:48:26;5.20;;;3.08;;
62071;SDS011;48031;48.542;13.232;2023-08-01T03:52:29;4.75;;;3.17;;
62071;SDS011;48031;48.542;13.232;2023-08-01T03:56:31;4.90;;;3.20;;
62071;SDS011;48031;48.542;13.232;2023-08-01T04:00:35;4.45;;;2.97;;
62071;SDS011;48031;48.542;13.232;2023-08-01T04:04:37;6.47;;;2.92;;
62071;SDS011;48031;48.542;13.232;2023-08-01T04:08:40;6.55;;;2.60;;
62071;SDS011;48031;48.542;13.232;2023-08-01T04:12:46;2.97;;;2.40;;
62071;SDS011;48031;48.542;13.232;2023-08-01T04:16:48;3.63;;;2.50;;
62071;SDS011;48031;48.542;13.232;2023-08-01T04:20:51;2.97;;;2.45;;
62071;SDS011;48031;48.542;13.232;2023-08-01T04:24:54;3.35;;;2.70;;
62071;SDS011;48031;48.542;13.232;2023-08-01T04:28:57;6.38;;;2.67;;
62071;SDS011;48031;48.542;13.232;2023-08-01T04:32:59;3.92;;;2.83;;
62071;SDS011;48031;48.542;13.232;2023-08-01T04:37:01;4.68;;;2.70;;
62071;SDS011;48031;48.542;13.232;2023-08-01T04:41:04;5.20;;;3.05;;
62071;SDS011;48031;48.542;13.232;2023-08-01T04:45:07;4.05;;;2.92;;
62071;SDS011;48031;48.542;13.232;2023-08-01T04:49:09;5.00;;;2.50;;
62071;SDS011;48031;48.542;13.232;2023-08-01T04:53:12;3.08;;;2.40;;
62071;SDS011;48031;48.542;13.232;2023-08-01T04:57:15;2.83;;;1.95;;
62071;SDS011;48031;48.542;13.232;2023-08-01T05:01:16;2.70;;;2.13;;
62071;SDS011;48031;48.542;13.232;2023-08-01T05:05:19;1.98;;;1.77;;
62071;SDS011;48031;48.542;13.232;2023-08-01T05:09:21;2.28;;;1.67;;
62071;SDS011;48031;48.542;13.232;2023-08-01T05:13:25;4.75;;;2.00;;
62071;SDS011;48031;48.542;13.232;2023-08-01T05:17:27;4.78;;;2.95;;
62071;SDS011;48031;48.542;13.232;2023-08-01T05:21:30;4.18;;;3.08;;
62071;SDS011;48031;48.542;13.232;2023-08-01T05:25:33;4.47;;;3.10;;
62071;SDS011;48031;48.542;13.232;2023-08-01T05:29:36;6.45;;;2.83;;
62071;SDS011;48031;48.542;13.232;2023-08-01T05:33:38;5.95;;;3.03;;
62071;SDS011;48031;48.542;13.232;2023-08-01T05:37:40;3.92;;;2.65;;
62071;SDS011;48031;48.542;13.232;2023-08-01T05:41:43;5.53;;;3.00;;
62071;SDS011;48031;48.542;13.232;2023-08-01T05:45:45;3.17;;;2.47;;
62071;SDS011;48031;48.542;13.232;2023-08-01T05:49:48;2.60;;;2.20;;
62071;SDS011;48031;48.542;13.232;2023-08-01T05:53:51;4.65;;;2.35;;
62071;SDS011;48031;48.542;13.232;2023-08-01T05:57:53;2.95;;;2.40;;
62071;SDS011;48031;48.542;13.232;2023-08-01T06:01:56;4.20;;;2.65;;
62071;SDS011;48031;48.542;13.232;2023-08-01T06:05:58;4.13;;;2.60;;
62071;SDS011;48031;48.542;13.232;2023-08-01T06:10:01;3.95;;;2.08;;
62071;SDS011;48031;48.542;13.232;2023-08-01T06:14:03;2.58;;;2.10;;
62071;SDS011;48031;48.542;13.232;2023-08-01T06:18:05;3.42;;;2.22;;
62071;SDS011;48031;48.542;13.232;2023-08-01T06:22:08;3.83;;;2.22;;
62071;SDS011;48031;48.542;13.232;2023-08-01T06:26:10;3.08;;;2.17;;
62071;SDS011;48031;48.542;13.232;2023-08-01T06:30:12;3.03;;;2.05;;
62071;SDS011;48031;48.542;13.232;2023-08-01T06:34:15;3.20;;;1.95;;
62071;SDS011;48031;48.542;13.232;2023-08-01T06:38:18;3.58;;;1.92;;
62071;SDS011;48031;48.542;13.232;2023-08-01T06:42:20;2.45;;;1.95;;
62071;SDS011;48031;48.542;13.232;2023-08-01T06:46:22;3.60;;;2.42;;
62071;SDS011;48031;48.542;13.232;2023-08-01T06:50:24;3.85;;;2.13;;
62071;SDS011;48031;48.542;13.232;2023-08-01T06:54:26;4.38;;;2.25;;
62071;SDS011;48031;48.542;13.232;2023-08-01T06:58:30;3.80;;;2.40;;
62071;SDS011;48031;48.542;13.232;2023-08-01T07:02:33;2.90;;;2.30;;
62071;SDS011;48031;48.542;13.232;2023-08-01T07:06:35;3.75;;;2.22;;
62071;SDS011;48031;48.542;13.232;2023-08-01T07:10:37;2.58;;;2.30;;
62071;SDS011;48031;48.542;13.232;2023-08-01T07:14:39;2.78;;;1.85;;
62071;SDS011;48031;48.542;13.232;2023-08-01T07:18:41;3.30;;;2.53;;
62071;SDS011;48031;48.542;13.232;2023-08-01T07:22:43;2.90;;;2.33;;
62071;SDS011;48031;48.542;13.232;2023-08-01T07:26:45;5.85;;;2.63;;
62071;SDS011;48031;48.542;13.232;2023-08-01T07:30:48;4.10;;;2.45;;
62071;SDS011;48031;48.542;13.232;2023-08-01T07:34:52;4.05;;;2.55;;
62071;SDS011;48031;48.542;13.232;2023-08-01T07:38:54;2.97;;;2.22;;
62071;SDS011;48031;48.542;13.232;2023-08-01T07:42:57;4.47;;;2.22;;
62071;SDS011;48031;48.542;13.232;2023-08-01T07:47:01;3.83;;;2.65;;
62071;SDS011;48031;48.542;13.232;2023-08-01T07:51:03;4.25;;;2.88;;
62071;SDS011;48031;48.542;13.232;2023-08-01T07:55:07;5.55;;;2.70;;
62071;SDS011;48031;48.542;13.232;2023-08-01T07:59:10;3.60;;;2.30;;
62071;SDS011;48031;48.542;13.232;2023-08-01T08:03:12;4.03;;;2.63;;
62071;SDS011;48031;48.542;13.232;2023-08-01T08:07:14;2.78;;;2.38;;
62071;SDS011;48031;48.542;13.232;2023-08-01T08:11:16;3.47;;;2.58;;
62071;SDS011;48031;48.542;13.232;2023-08-01T08:15:19;4.15;;;2.58;;
62071;SDS011;48031;48.542;13.232;2023-08-01T08:19:22;5.93;;;2.97;;
62071;SDS011;48031;48.542;13.232;2023-08-01T08:23:25;4.00;;;3.00;;
62071;SDS011;48031;48.542;13.232;2023-08-01T08:27:28;4.50;;;3.17;;
62071;SDS011;48031;48.542;13.232;2023-08-01T08:31:30;3.88;;;2.72;;
62071;SDS011;48031;48.542;13.232;2023-08-01T08:35:33;4.13;;;2.58;;
62071;SDS011;48031;48.542;13.232;2023-08-01T08:39:36;3.40;;;2.63;;
62071;SDS011;48031;48.542;13.232;2023-08-01T08:43:38;4.43;;;3.08;;
62071;SDS011;48031;48.542;13.232;2023-08-01T08:47:43;3.35;;;2.35;;
62071;SDS011;48031;48.542;13.232;2023-08-01T08:51:48;3.72;;;2.50;;
62071;SDS011;48031;48.542;13.232;2023-08-01T08:55:50;2.88;;;2.47;;
62071;SDS011;48031;48.542;13.232;2023-08-01T08:59:52;3.83;;;2.50;;
62071;SDS011;48031;48.542;13.232;2023-08-01T09:03:55;3.45;;;2.45;;
62071;SDS011;48031;48.542;13.232;2023-08-01T09:07:58;3.60;;;2.65;;
62071;SDS011;48031;48.542;13.232;2023-08-01T09:12:06;2.55;;;2.17;;
62071;SDS011;48031;48.542;13.232;2023-08-01T09:16:10;2.67;;;2.10;;
62071;SDS011;48031;48.542;13.232;2023-08-01T09:20:13;4.20;;;2.40;;
62071;SDS011;48031;48.542;13.232;2023-08-01T09:24:19;3.30;;;2.20;;
62071;SDS011;48031;48.542;13.232;2023-08-01T09:28:22;3.95;;;2.53;;
62071;SDS011;48031;48.542;13.232;2023-08-01T09:32:25;3.97;;;2.42;;
62071;SDS011;48031;48.542;13.232;2023-08-01T09:36:28;3.17;;;2.13;;
62071;SDS011;48031;48.542;13.232;2023-08-01T09:40:37;2.88;;;2.30;;
62071;SDS011;48031;48.542;13.232;2023-08-01T09:44:39;2.47;;;1.88;;
62071;SDS011;48031;48.542;13.232;2023-08-01T09:48:47;3.33;;;2.67;;
62071;SDS011;48031;48.542;13.232;2023-08-01T09:52:49;2.78;;;2.00;;
62071;SDS011;48031;48.542;13.232;2023-08-01T09:56:54;3.00;;;2.35;;
62071;SDS011;48031;48.542;13.232;2023-08-01T10:00:58;3.60;;;2.40;;
62071;SDS011;48031;48.542;13.232;2023-08-01T10:05:01;3.60;;;2.60;;
62071;SDS011;48031;48.542;13.232;2023-08-01T10:09:04;2.80;;;2.10;;
62071;SDS011;48031;48.542;13.232;2023-08-01T10:13:06;3.15;;;2.13;;
62071;SDS011;48031;48.542;13.232;2023-08-01T10:17:10;3.25;;;2.30;;
62071;SDS011;48031;48.542;13.232;2023-08-01T10:21:13;2.70;;;2.08;;
62071;SDS011;48031;48.542;13.232;2023-08-01T10:25:17;2.20;;;1.77;;
62071;SDS011;48031;48.542;13.232;2023-08-01T10:29:22;2.35;;;1.90;;
62071;SDS011;48031;48.542;13.232;2023-08-01T10:33:37;2.72;;;2.17;;
62071;SDS011;48031;48.542;13.232;2023-08-01T10:37:43;2.63;;;1.92;;
62071;SDS011;48031;48.542;13.232;2023-08-01T10:41:56;4.30;;;2.47;;
62071;SDS011;48031;48.542;13.232;2023-08-01T10:46:02;2.65;;;2.00;;
62071;SDS011;48031;48.542;13.232;2023-08-01T10:50:13;3.00;;;1.80;;
62071;SDS011;48031;48.542;13.232;2023-08-01T10:54:22;3.33;;;2.22;;
62071;SDS011;48031;48.542;13.232;2023-08-01T10:58:26;3.00;;;2.22;;
62071;SDS011;48031;48.542;13.232;2023-08-01T11:02:29;2.95;;;2.08;;
62071;SDS011;48031;48.542;13.232;2023-08-01T11:06:41;2.83;;;1.80;;
62071;SDS011;48031;48.542;13.232;2023-08-01T11:10:48;8.40;;;2.25;;
62071;SDS011;48031;48.542;13.232;2023-08-01T11:14:51;3.00;;;2.37;;
62071;SDS011;48031;48.542;13.232;2023-08-01T11:18:53;3.08;;;2.00;;
62071;SDS011;48031;48.542;13.232;2023-08-01T11:26:59;6.47;;;2.95;;
62071;SDS011;48031;48.542;13.232;2023-08-01T11:31:10;3.50;;;2.45;;
62071;SDS011;48031;48.542;13.232;2023-08-01T11:35:17;7.88;;;2.58;;
62071;SDS011;48031;48.542;13.232;2023-08-01T11:39:20;3.88;;;2.22;;
62071;SDS011;48031;48.542;13.232;2023-08-01T11:43:24;5.85;;;2.60;;
62071;SDS011;48031;48.542;13.232;2023-08-01T11:47:26;3.40;;;2.55;;
62071;SDS011;48031;48.542;13.232;2023-08-01T11:51:29;6.72;;;2.55;;
62071;SDS011;48031;48.542;13.232;2023-08-01T11:55:31;4.90;;;2.65;;
62071;SDS011;48031;48.542;13.232;2023-08-01T11:59:45;2.35;;;2.15;;
62071;SDS011;48031;48.542;13.232;2023-08-01T12:03:51;3.30;;;2.30;;
62071;SDS011;48031;48.542;13.232;2023-08-01T12:07:55;3.25;;;2.05;;
62071;SDS011;48031;48.542;13.232;2023-08-01T12:11:58;4.82;;;2.55;;
62071;SDS011;48031;48.542;13.232;2023-08-01T12:16:06;3.05;;;2.40;;
62071;SDS011;48031;48.542;13.232;2023-08-01T12:20:08;3.60;;;2.58;;
62071;SDS011;48031;48.542;13.232;2023-08-01T12:24:10;4.00;;;3.10;;
62071;SDS011;48031;48.542;13.232;2023-08-01T12:28:15;3.40;;;2.97;;
62071;SDS011;48031;48.542;13.232;2023-08-01T12:32:17;4.93;;;3.72;;
62071;SDS011;48031;48.542;13.232;2023-08-01T12:36:20;6.18;;;3.30;;
62071;SDS011;48031;48.542;13.232;2023-08-01T12:40:22;6.82;;;3.42;;
62071;SDS011;48031;48.542;13.232;2023-08-01T12:44:25;6.95;;;2.45;;
62071;SDS011;48031;48.542;13.232;2023-08-01T12:48:27;3.10;;;2.20;;
62071;SDS011;48031;48.542;13.232;2023-08-01T12:52:29;2.58;;;1.95;;
62071;SDS011;48031;48.542;13.232;2023-08-01T12:56:31;2.45;;;1.63;;
62071;SDS011;48031;48.542;13.232;2023-08-01T13:00:33;1.70;;;1.55;;
62071;SDS011;48031;48.542;13.232;2023-08-01T13:04:36;2.85;;;1.58;;
62071;SDS011;48031;48.542;13.232;2023-08-01T13:08:38;1.98;;;1.30;;
62071;SDS011;48031;48.542;13.232;2023-08-01T13:12:41;3.20;;;1.85;;
62071;SDS011;48031;48.542;13.232;2023-08-01T13:16:42;2.28;;;1.60;;
62071;SDS011;48031;48.542;13.232;2023-08-01T13:20:45;2.05;;;1.65;;
62071;SDS011;48031;48.542;13.232;2023-08-01T13:24:47;2.00;;;1.60;;
62071;SDS011;48031;48.542;13.232;2023-08-01T13:28:50;2.05;;;1.45;;
62071;SDS011;48031;48.542;13.232;2023-08-01T13:32:52;1.95;;;1.50;;
62071;SDS011;48031;48.542;13.232;2023-08-01T13:36:54;2.42;;;1.67;;
62071;SDS011;48031;48.542;13.232;2023-08-01T13:41:00;2.33;;;1.80;;
62071;SDS011;48031;48.542;13.232;2023-08-01T13:45:03;2.95;;;1.50;;
62071;SDS011;48031;48.542;13.232;2023-08-01T13:49:05;3.17;;;1.60;;
62071;SDS011;48031;48.542;13.232;2023-08-01T13:53:07;1.92;;;1.50;;
62071;SDS011;48031;48.542;13.232;2023-08-01T13:57:12;2.60;;;1.70;;
62071;SDS011;48031;48.542;13.232;2023-08-01T14:01:14;2.38;;;1.77;;
62071;SDS011;48031;48.542;13.232;2023-08-01T14:05:17;3.63;;;1.83;;
62071;SDS011;48031;48.542;13.232;2023-08-01T14:09:19;3.47;;;1.70;;
62071;SDS011;48031;48.542;13.232;2023-08-01T14:13:21;3.03;;;1.88;;
62071;SDS011;48031;48.542;13.232;2023-08-01T14:17:23;4.32;;;1.75;;
62071;SDS011;48031;48.542;13.232;2023-08-01T14:21:25;3.50;;;1.60;;
62071;SDS011;48031;48.542;13.232;2023-08-01T14:25:27;2.00;;;1.70;;
62071;SDS011;48031;48.542;13.232;2023-08-01T14:29:32;3.05;;;1.60;;
62071;SDS011;48031;48.542;13.232;2023-08-01T14:33:35;2.05;;;1.58;;
62071;SDS011;48031;48.542;13.232;2023-08-01T14:37:37;2.40;;;1.83;;
62071;SDS011;48031;48.542;13.232;2023-08-01T14:41:39;2.53;;;1.70;;
62071;SDS011;48031;48.542;13.232;2023-08-01T14:46:01;3.05;;;1.60;;
62071;SDS011;48031;48.542;13.232;2023-08-01T14:50:03;1.83;;;1.30;;
62071;SDS011;48031;48.542;13.232;2023-08-01T14:54:06;5.07;;;1.60;;
62071;SDS011;48031;48.542;13.232;2023-08-01T14:58:08;1.92;;;1.30;;
62071;SDS011;48031;48.542;13.232;2023-08-01T15:02:10;1.40;;;1.30;;
62071;SDS011;48031;48.542;13.232;2023-08-01T15:06:13;1.30;;;1.10;;
62071;SDS011;48031;48.542;13.232;2023-08-01T15:10:16;1.40;;;0.90;;
62071;SDS011;48031;48.542;13.232;2023-08-01T15:14:18;1.38;;;1.15;;
62071;SDS011;48031;48.542;13.232;2023-08-01T15:18:20;1.40;;;1.15;;
62071;SDS011;48031;48.542;13.232;2023-08-01T15:22:23;1.33;;;1.00;;
62071;SDS011;48031;48.542;13.232;2023-08-01T15:26:25;1.20;;;1.08;;
62071;SDS011;48031;48.542;13.232;2023-08-01T15:30:27;1.52;;;1.30;;
62071;SDS011;48031;48.542;13.232;2023-08-01T15:34:29;1.60;;;0.98;;
62071;SDS011;48031;48.542;13.232;2023-08-01T15:38:31;1.15;;;1.05;;
62071;SDS011;48031;48.542;13.232;2023-08-01T15:42:35;2.22;;;0.90;;
62071;SDS011;48031;48.542;13.232;2023-08-01T15:46:37;1.83;;;1.05;;
62071;SDS011;48031;48.542;13.232;2023-08-01T15:50:41;1.20;;;0.98;;
62071;SDS011;48031;48.542;13.232;2023-08-01T15:54:43;1.15;;;0.88;;
62071;SDS011;48031;48.542;13.232;2023-08-01T15:58:45;0.88;;;0.88;;
62071;SDS011;48031;48.542;13.232;2023-08-01T16:02:47;1.10;;;1.10;;
62071;SDS011;48031;48.542;13.232;2023-08-01T16:06:50;1.40;;;1.30;;
62071;SDS011;48031;48.542;13.232;2023-08-01T16:10:52;1.40;;;1.00;;
62071;SDS011;48031;48.542;13.232;2023-08-01T16:14:54;1.45;;;1.35;;
62071;SDS011;48031;48.542;13.232;2023-08-01T16:18:56;0.98;;;0.80;;
62071;SDS011;48031;48.542;13.232;2023-08-01T16:22:58;0.80;;;0.70;;
62071;SDS011;48031;48.542;13.232;2023-08-01T16:27:00;0.95;;;0.90;;
62071;SDS011;48031;48.542;13.232;2023-08-01T16:31:02;1.65;;;1.00;;
62071;SDS011;48031;48.542;13.232;2023-08-01T16:35:07;1.20;;;0.80;;
62071;SDS011;48031;48.542;13.232;2023-08-01T16:39:10;0.80;;;0.80;;
62071;SDS011;48031;48.542;13.232;2023-08-01T16:43:12;2.00;;;0.80;;
62071;SDS011;48031;48.542;13.232;2023-08-01T16:47:14;1.17;;;1.08;;
62071;SDS011;48031;48.542;13.232;2023-08-01T16:51:36;1.30;;;1.20;;
62071;SDS011;48031;48.542;13.232;2023-08-01T16:55:38;1.30;;;1.00;;
62071;SDS011;48031;48.542;13.232;2023-08-01T16:59:40;1.20;;;1.10;;
62071;SDS011;48031;48.542;13.232;2023-08-01T17:03:42;0.85;;;0.85;;
62071;SDS011;48031;48.542;13.232;2023-08-01T17:07:44;1.05;;;0.88;;
62071;SDS011;48031;48.542;13.232;2023-08-01T17:11:47;0.60;;;0.60;;
62071;SDS011;48031;48.542;13.232;2023-08-01T17:15:49;0.93;;;0.82;;
62071;SDS011;48031;48.542;13.232;2023-08-01T17:19:50;2.00;;;1.00;;
62071;SDS011;48031;48.542;13.232;2023-08-01T17:23:53;1.30;;;1.05;;
62071;SDS011;48031;48.542;13.232;2023-08-01T17:27:55;1.02;;;0.80;;
62071;SDS011;48031;48.542;13.232;2023-08-01T17:31:58;0.80;;;0.80;;
62071;SDS011;48031;48.542;13.232;2023-08-01T17:36:00;1.52;;;0.80;;
62071;SDS011;48031;48.542;13.232;2023-08-01T17:40:03;2.15;;;0.85;;
62071;SDS011;48031;48.542;13.232;2023-08-01T17:44:05;1.35;;;1.00;;
62071;SDS011;48031;48.542;13.232;2023-08-01T17:48:08;1.50;;;0.90;;
62071;SDS011;48031;48.542;13.232;2023-08-01T17:52:11;0.93;;;0.77;;
62071;SDS011;48031;48.542;13.232;2023-08-01T17:56:14;3.40;;;1.00;;
62071;SDS011;48031;48.542;13.232;2023-08-01T18:00:17;0.90;;;0.80;;
62071;SDS011;48031;48.542;13.232;2023-08-01T18:04:21;0.90;;;0.90;;
62071;SDS011;48031;48.542;13.232;2023-08-01T18:08:23;1.30;;;0.88;;
62071;SDS011;48031;48.542;13.232;2023-08-01T18:12:25;2.30;;;0.90;;
62071;SDS011;48031;48.542;13.232;2023-08-01T18:16:28;1.20;;;1.00;;
62071;SDS011;48031;48.542;13.232;2023-08-01T18:20:30;0.82;;;0.70;;
62071;SDS011;48031;48.542;13.232;2023-08-01T18:24:32;0.70;;;0.70;;
62071;SDS011;48031;48.542;13.232;2023-08-01T18:28:34;0.88;;;0.82;;
62071;SDS011;48031;48.542;13.232;2023-08-01T18:32:36;0.80;;;0.80;;
62071;SDS011;48031;48.542;13.232;2023-08-01T18:36:39;1.90;;;1.00;;
62071;SDS011;48031;48.542;13.232;2023-08-01T18:40:41;0.70;;;0.70;;
62071;SDS011;48031;48.542;13.232;2023-08-01T18:44:43;0.80;;;0.80;;
62071;SDS011;48031;48.542;13.232;2023-08-01T18:48:45;0.95;;;0.85;;
62071;SDS011;48031;48.542;13.232;2023-08-01T18:52:51;1.02;;;0.85;;
62071;SDS011;48031;48.542;13.232;2023-08-01T18:56:53;0.90;;;0.77;;
62071;SDS011;48031;48.542;13.232;2023-08-01T19:00:55;1.65;;;1.00;;
62071;SDS011;48031;48.542;13.232;2023-08-01T19:04:57;0.85;;;0.80;;
62071;SDS011;48031;48.542;13.232;2023-08-01T19:09:00;1.10;;;0.90;;
62071;SDS011;48031;48.542;13.232;2023-08-01T19:13:21;1.17;;;0.82;;
62071;SDS011;48031;48.542;13.232;2023-08-01T19:17:23;2.42;;;0.88;;
62071;SDS011;48031;48.542;13.232;2023-08-01T19:21:25;1.48;;;0.98;;
62071;SDS011;48031;48.542;13.232;2023-08-01T19:25:27;0.75;;;0.75;;
62071;SDS011;48031;48.542;13.232;2023-08-01T19:29:29;1.30;;;0.90;;
62071;SDS011;48031;48.542;13.232;2023-08-01T19:33:32;0.90;;;0.80;;
62071;SDS011;48031;48.542;13.232;2023-08-01T19:37:34;0.80;;;0.73;;
62071;SDS011;48031;48.542;13.232;2023-08-01T19:41:36;1.30;;;1.08;;
62071;SDS011;48031;48.542;13.232;2023-08-01T19:45:39;1.70;;;1.02;;
62071;SDS011;48031;48.542;13.232;2023-08-01T19:49:42;0.77;;;0.70;;
62071;SDS011;48031;48.542;13.232;2023-08-01T19:53:44;0.60;;;0.60;;
62071;SDS011;48031;48.542;13.232;2023-08-01T19:57:46;1.63;;;0.77;;
62071;SDS011;48031;48.542;13.232;2023-08-01T20:01:49;0.95;;;0.70;;
62071;SDS011;48031;48.542;13.232;2023-08-01T20:05:55;0.82;;;0.70;;
62071;SDS011;48031;48.542;13.232;2023-08-01T20:09:58;2.35;;;0.80;;
62071;SDS011;48031;48.542;13.232;2023-08-01T20:14:00;0.88;;;0.52;;
62071;SDS011;48031;48.542;13.232;2023-08-01T20:18:02;0.80;;;0.70;;
62071;SDS011;48031;48.542;13.232;2023-08-01T20:22:04;2.10;;;0.95;;
62071;SDS011;48031;48.542;13.232;2023-08-01T20:26:06;0.70;;;0.70;;
62071;SDS011;48031;48.542;13.232;2023-08-01T20:30:09;0.70;;;0.70;;
62071;SDS011;48031;48.542;13.232;2023-08-01T20:34:12;0.98;;;0.65;;
62071;SDS011;48031;48.542;13.232;2023-08-01T20:38:14;0.98;;;0.80;;
62071;SDS011;48031;48.542;13.232;2023-08-01T20:42:17;0.75;;;0.70;;
62071;SDS011;48031;48.542;13.232;2023-08-01T20:46:19;1.67;;;0.90;;
62071;SDS011;48031;48.542;13.232;2023-08-01T20:50:21;4.18;;;0.90;;
62071;SDS011;48031;48.542;13.232;2023-08-01T20:54:23;1.02;;;0.90;;
62071;SDS011;48031;48.542;13.232;2023-08-01T20:58:25;1.35;;;0.85;;
62071;SDS011;48031;48.542;13.232;2023-08-01T21:02:28;0.98;;;0.90;;
62071;SDS011;48031;48.542;13.232;2023-08-01T21:06:30;0.70;;;0.70;;
62071;SDS011;48031;48.542;13.232;2023-08-01T21:10:32;1.00;;;0.70;;
62071;SDS011;48031;48.542;13.232;2023-08-01T21:14:34;1.88;;;0.75;;
62071;SDS011;48031;48.542;13.232;2023-08-01T21:18:37;2.40;;;1.08;;
62071;SDS011;48031;48.542;13.232;2023-08-01T21:22:39;0.70;;;0.70;;
62071;SDS011;48031;48.542;13.232;2023-08-01T21:26:41;0.82;;;0.65;;
62071;SDS011;48031;48.542;13.232;2023-08-01T21:30:44;0.60;;;0.60;;
62071;SDS011;48031;48.542;13.232;2023-08-01T21:34:46;0.57;;;0.55;;
62071;SDS011;48031;48.542;13.232;2023-08-01T21:38:48;0.68;;;0.68;;
62071;SDS011;48031;48.542;13.232;2023-08-01T21:42:50;1.60;;;0.95;;
62071;SDS011;48031;48.542;13.232;2023-08-01T21:46:52;1.25;;;0.70;;
62071;SDS011;48031;48.542;13.232;2023-08-01T21:50:55;0.73;;;0.73;;
62071;SDS011;48031;48.542;13.232;2023-08-01T21:54:57;0.95;;;0.80;;
62071;SDS011;48031;48.542;13.232;2023-08-01T21:58:59;1.33;;;0.73;;
62071;SDS011;48031;48.542;13.232;2023-08-01T22:03:01;2.35;;;0.80;;
62071;SDS011;48031;48.542;13.232;2023-08-01T22:07:03;0.70;;;0.70;;
62071;SDS011;48031;48.542;13.232;2023-08-01T22:11:05;0.70;;;0.60;;
62071;SDS011;48031;48.542;13.232;2023-08-01T22:15:07;0.60;;;0.60;;
62071;SDS011;48031;48.542;13.232;2023-08-01T22:19:11;0.63;;;0.63;;
62071;SDS011;48031;48.542;13.232;2023-08-01T22:23:13;1.00;;;0.68;;
62071;SDS011;48031;48.542;13.232;2023-08-01T22:27:15;0.95;;;0.68;;
62071;SDS011;48031;48.542;13.232;2023-08-01T22:31:17;0.80;;;0.80;;
62071;SDS011;48031;48.542;13.232;2023-08-01T22:35:19;1.05;;;0.95;;
62071;SDS011;48031;48.542;13.232;2023-08-01T22:39:21;0.80;;;0.80;;
62071;SDS011;48031;48.542;13.232;2023-08-01T22:43:23;0.70;;;0.70;;
62071;SDS011;48031;48.542;13.232;2023-08-01T22:47:26;1.05;;;0.70;;
62071;SDS011;48031;48.542;13.232;2023-08-01T22:51:27;0.73;;;0.70;;
62071;SDS011;48031;48.542;13.232;2023-08-01T22:55:30;0.75;;;0.70;;
62071;SDS011;48031;48.542;13.232;2023-08-01T22:59:33;0.80;;;0.80;;
62071;SDS011;48031;48.542;13.232;2023-08-01T23:03:38;0.88;;;0.82;;
62071;SDS011;48031;48.542;13.232;2023-08-01T23:07:40;1.00;;;0.90;;
62071;SDS011;48031;48.542;13.232;2023-08-01T23:11:43;0.90;;;0.90;;
62071;SDS011;48031;48.542;13.232;2023-08-01T23:15:45;1.17;;;0.80;;
62071;SDS011;48031;48.542;13.232;2023-08-01T23:19:48;0.80;;;0.80;;
62071;SDS011;48031;48.542;13.232;2023-08-01T23:23:50;0.82;;;0.82;;
62071;SDS011;48031;48.542;13.232;2023-08-01T23:27:51;0.60;;;0.60;;
62071;SDS011;48031;48.542;13.232;2023-08-01T23:31:54;1.00;;;0.80;;
62071;SDS011;48031;48.542;13.232;2023-08-01T23:35:57;0.68;;;0.68;;
62071;SDS011;48031;48.542;13.232;2023-08-01T23:39:59;1.13;;;0.70;;
62071;SDS011;48031;48.542;13.232;2023-08-01T23:44:01;0.70;;;0.70;;
62071;SDS011;48031;48.542;13.232;2023-08-01T23:48:03;1.05;;;0.82;;
62071;SDS011;48031;48.542;13.232;2023-08-01T23:52:05;1.00;;;0.90;;
62071;SDS011;48031;48.542;13.232;2023-08-01T23:56:07;1.02;;;0.90;;
